CCA351 RCTP-WIII
Flight info
| Callsign | CCA351 |
|---|---|
| Flight time | N/A |
| Altitude | FL380 |
| Route | CHAL1D CHALI T3 AJENT T5 PARPA A577 KABAM N892 DALRA A583 AKOTA M754 BRU R223 BUTAX P648 AMBOY AMBO2H |
| Aircraft | B789/H-CGHLRTWZ/B1D1 |
Departure
| Time | 2026-05-05 01:14 |
|---|---|
| Airport | Taiwan Taoyuan International Airport (RCTP) |
Arrival
| Time | N/A |
|---|---|
| Airport | Soekarno-Hatta International Airport (WIII) |
| Time | Latitude | Longitude | Altitude | Speed | Heading |
|---|---|---|---|---|---|
| 2026-05-05 01:13 | 25.17323 | 121.28999 | 4142 ft | 250 kts | 329° |
| 2026-05-05 01:14 | 25.18467 | 121.27571 | 4366 ft | 253 kts | 302° |
| 2026-05-05 01:14 | 25.19281 | 121.25838 | 4956 ft | 257 kts | 295° |
| 2026-05-05 01:14 | 25.20237 | 121.24148 | 5627 ft | 264 kts | 299° |
| 2026-05-05 01:14 | 25.21335 | 121.22504 | 6293 ft | 269 kts | 303° |
| 2026-05-05 01:15 | 25.22525 | 121.20903 | 6984 ft | 272 kts | 306° |
| 2026-05-05 01:15 | 25.23770 | 121.19325 | 7674 ft | 274 kts | 307° |
| 2026-05-05 01:15 | 25.25046 | 121.17767 | 8377 ft | 275 kts | 307° |
| 2026-05-05 01:15 | 25.26336 | 121.16217 | 9082 ft | 274 kts | 308° |
| 2026-05-05 01:16 | 25.27615 | 121.14661 | 9757 ft | 273 kts | 305° |
| 2026-05-05 01:16 | 25.28503 | 121.12829 | 10156 ft | 275 kts | 286° |
| 2026-05-05 01:16 | 25.28615 | 121.10708 | 10373 ft | 285 kts | 263° |
| 2026-05-05 01:16 | 25.27887 | 121.08641 | 10583 ft | 299 kts | 241° |
| 2026-05-05 01:17 | 25.26404 | 121.06964 | 10819 ft | 315 kts | 222° |
| 2026-05-05 01:17 | 25.24615 | 121.05511 | 11131 ft | 326 kts | 219° |
| 2026-05-05 01:17 | 25.22828 | 121.03899 | 11371 ft | 337 kts | 223° |
| 2026-05-05 01:17 | 25.21080 | 121.02145 | 11728 ft | 344 kts | 225° |
| 2026-05-05 01:18 | 25.19315 | 121.00342 | 12162 ft | 348 kts | 225° |
| 2026-05-05 01:18 | 25.17533 | 120.98522 | 12629 ft | 352 kts | 225° |
| 2026-05-05 01:18 | 25.15744 | 120.96671 | 13117 ft | 354 kts | 225° |
| 2026-05-05 01:18 | 25.13957 | 120.94795 | 13637 ft | 356 kts | 226° |
| 2026-05-05 01:19 | 25.12174 | 120.92902 | 14152 ft | 357 kts | 226° |
| 2026-05-05 01:19 | 25.10394 | 120.90995 | 14666 ft | 358 kts | 226° |
| 2026-05-05 01:19 | 25.08606 | 120.89070 | 15155 ft | 361 kts | 226° |
| 2026-05-05 01:19 | 25.06810 | 120.87136 | 15616 ft | 363 kts | 227° |
| 2026-05-05 01:20 | 25.05000 | 120.85187 | 16067 ft | 365 kts | 227° |
| 2026-05-05 01:20 | 25.03180 | 120.83229 | 16532 ft | 367 kts | 227° |
| 2026-05-05 01:20 | 25.01351 | 120.81257 | 16996 ft | 369 kts | 227° |
| 2026-05-05 01:20 | 24.99514 | 120.79278 | 17456 ft | 371 kts | 227° |
| 2026-05-05 01:21 | 24.97667 | 120.77293 | 17904 ft | 373 kts | 227° |
| 2026-05-05 01:21 | 24.95811 | 120.75297 | 18344 ft | 375 kts | 227° |
| 2026-05-05 01:21 | 24.93942 | 120.73289 | 18756 ft | 378 kts | 227° |
| 2026-05-05 01:21 | 24.92061 | 120.71266 | 19176 ft | 380 kts | 227° |
| 2026-05-05 01:22 | 24.90167 | 120.69230 | 19597 ft | 382 kts | 227° |
| 2026-05-05 01:22 | 24.88262 | 120.67184 | 20022 ft | 384 kts | 227° |
| 2026-05-05 01:22 | 24.86345 | 120.65128 | 20430 ft | 387 kts | 227° |
| 2026-05-05 01:22 | 24.84415 | 120.63059 | 20830 ft | 389 kts | 227° |
| 2026-05-05 01:23 | 24.82474 | 120.60978 | 21250 ft | 391 kts | 227° |
| 2026-05-05 01:23 | 24.80524 | 120.58888 | 21671 ft | 393 kts | 227° |
| 2026-05-05 01:23 | 24.78561 | 120.56786 | 22052 ft | 396 kts | 227° |
| 2026-05-05 01:23 | 24.76585 | 120.54669 | 22430 ft | 399 kts | 226° |
| 2026-05-05 01:24 | 24.74561 | 120.52575 | 22835 ft | 402 kts | 224° |
| 2026-05-05 01:24 | 24.72371 | 120.50656 | 23266 ft | 405 kts | 220° |
| 2026-05-05 01:24 | 24.70113 | 120.48806 | 23698 ft | 406 kts | 219° |
| 2026-05-05 01:24 | 24.67816 | 120.46989 | 24081 ft | 409 kts | 219° |
| 2026-05-05 01:25 | 24.65491 | 120.45185 | 24451 ft | 412 kts | 218° |
| 2026-05-05 01:25 | 24.63137 | 120.43381 | 24832 ft | 414 kts | 218° |
| 2026-05-05 01:25 | 24.60768 | 120.41577 | 25200 ft | 417 kts | 218° |
| 2026-05-05 01:25 | 24.58379 | 120.39764 | 25569 ft | 419 kts | 218° |
| 2026-05-05 01:26 | 24.56630 | 120.38440 | 25846 ft | 420 kts | 218° |
| 2026-05-05 01:26 | 24.54222 | 120.36618 | 26222 ft | 422 kts | 218° |
| 2026-05-05 01:26 | 24.51805 | 120.34791 | 26584 ft | 424 kts | 218° |
| 2026-05-05 01:26 | 24.49378 | 120.32958 | 26930 ft | 426 kts | 218° |
| 2026-05-05 01:27 | 24.46932 | 120.31110 | 27267 ft | 428 kts | 218° |
| 2026-05-05 01:27 | 24.44490 | 120.29243 | 27607 ft | 430 kts | 219° |
| 2026-05-05 01:27 | 24.42055 | 120.27356 | 27937 ft | 432 kts | 219° |
| 2026-05-05 01:27 | 24.39597 | 120.25445 | 28266 ft | 434 kts | 219° |
| 2026-05-05 01:28 | 24.37138 | 120.23531 | 28608 ft | 435 kts | 219° |
| 2026-05-05 01:28 | 24.34670 | 120.21612 | 28963 ft | 437 kts | 219° |
| 2026-05-05 01:28 | 24.32186 | 120.19683 | 29279 ft | 439 kts | 219° |
| 2026-05-05 01:28 | 24.29692 | 120.17747 | 29588 ft | 441 kts | 219° |
| 2026-05-05 01:29 | 24.27186 | 120.15803 | 29898 ft | 444 kts | 219° |
| 2026-05-05 01:29 | 24.24668 | 120.13851 | 30197 ft | 446 kts | 219° |
| 2026-05-05 01:29 | 24.22127 | 120.11883 | 30482 ft | 449 kts | 219° |
| 2026-05-05 01:29 | 24.19579 | 120.09909 | 30778 ft | 451 kts | 219° |
| 2026-05-05 01:30 | 24.17013 | 120.07923 | 31096 ft | 453 kts | 219° |
| 2026-05-05 01:30 | 24.14443 | 120.05936 | 31417 ft | 454 kts | 219° |
| 2026-05-05 01:30 | 24.11862 | 120.03941 | 31760 ft | 455 kts | 219° |
| 2026-05-05 01:30 | 24.09277 | 120.01944 | 32110 ft | 456 kts | 219° |
| 2026-05-05 01:31 | 24.06693 | 119.99949 | 32463 ft | 456 kts | 219° |
| 2026-05-05 01:31 | 24.04062 | 119.97999 | 32819 ft | 460 kts | 216° |
| 2026-05-05 01:31 | 24.01142 | 119.96513 | 33121 ft | 470 kts | 206° |
| 2026-05-05 01:31 | 23.97949 | 119.95664 | 33483 ft | 479 kts | 196° |
| 2026-05-05 01:32 | 23.94592 | 119.95488 | 33841 ft | 490 kts | 185° |
| 2026-05-05 01:32 | 23.91189 | 119.95900 | 34226 ft | 495 kts | 179° |
| 2026-05-05 01:32 | 23.87790 | 119.96512 | 34579 ft | 496 kts | 178° |
| 2026-05-05 01:32 | 23.84394 | 119.97122 | 34893 ft | 495 kts | 178° |
| 2026-05-05 01:33 | 23.80996 | 119.97675 | 35206 ft | 495 kts | 179° |
| 2026-05-05 01:33 | 23.77596 | 119.98172 | 35512 ft | 494 kts | 180° |
| 2026-05-05 01:33 | 23.74192 | 119.98631 | 35818 ft | 493 kts | 180° |
| 2026-05-05 01:33 | 23.70791 | 119.99066 | 36118 ft | 493 kts | 180° |
| 2026-05-05 01:34 | 23.67394 | 119.99492 | 36416 ft | 493 kts | 181° |
| 2026-05-05 01:34 | 23.63995 | 119.99914 | 36708 ft | 492 kts | 181° |
| 2026-05-05 01:34 | 23.60598 | 120.00335 | 36992 ft | 492 kts | 181° |
| 2026-05-05 01:34 | 23.57204 | 120.00756 | 37271 ft | 492 kts | 181° |
| 2026-05-05 01:35 | 23.53808 | 120.01177 | 37534 ft | 492 kts | 180° |
| 2026-05-05 01:35 | 23.50416 | 120.01597 | 37775 ft | 492 kts | 180° |
| 2026-05-05 01:35 | 23.47022 | 120.02018 | 37936 ft | 492 kts | 180° |
| 2026-05-05 01:35 | 23.43619 | 120.02440 | 37982 ft | 493 kts | 180° |
| 2026-05-05 01:36 | 23.36812 | 120.03283 | 37994 ft | 494 kts | 180° |
| 2026-05-05 01:36 | 23.29979 | 120.04128 | 38005 ft | 495 kts | 180° |
| 2026-05-05 01:37 | 23.23159 | 120.04974 | 37995 ft | 493 kts | 180° |
| 2026-05-05 01:37 | 23.16338 | 120.05814 | 38000 ft | 495 kts | 180° |
| 2026-05-05 01:38 | 23.09529 | 120.06105 | 38017 ft | 488 kts | 187° |
| 2026-05-05 01:38 | 23.02763 | 120.05960 | 37994 ft | 487 kts | 188° |
| 2026-05-05 01:39 | 22.95988 | 120.05772 | 37999 ft | 488 kts | 188° |
| 2026-05-05 01:39 | 22.89215 | 120.05607 | 38001 ft | 487 kts | 188° |
| 2026-05-05 01:40 | 22.82445 | 120.05447 | 37989 ft | 489 kts | 187° |
| 2026-05-05 01:40 | 22.75661 | 120.05291 | 37994 ft | 489 kts | 187° |
| 2026-05-05 01:41 | 22.68886 | 120.05138 | 37993 ft | 487 kts | 188° |
| 2026-05-05 01:41 | 22.63018 | 120.05000 | 37983 ft | 489 kts | 187° |
| 2026-05-05 01:42 | 22.60485 | 120.04942 | 37977 ft | 489 kts | 187° |
| 2026-05-05 01:42 | 22.57231 | 120.04869 | 37973 ft | 488 kts | 187° |
| 2026-05-05 01:43 | 22.50459 | 120.04713 | 37975 ft | 489 kts | 186° |
| 2026-05-05 01:43 | 22.43610 | 120.04546 | 37985 ft | 497 kts | 185° |
| 2026-05-05 01:44 | 22.36654 | 120.04392 | 37975 ft | 503 kts | 185° |
| 2026-05-05 01:44 | 22.29665 | 120.04238 | 37962 ft | 503 kts | 185° |
| 2026-05-05 01:45 | 22.22667 | 120.04080 | 37975 ft | 504 kts | 185° |
| 2026-05-05 01:45 | 22.15677 | 120.03921 | 37970 ft | 504 kts | 185° |
| 2026-05-05 01:46 | 22.08686 | 120.03762 | 37965 ft | 503 kts | 185° |
| 2026-05-05 01:46 | 22.01724 | 120.03395 | 37976 ft | 500 kts | 190° |
| 2026-05-05 01:47 | 21.94849 | 120.02427 | 37971 ft | 499 kts | 192° |
| 2026-05-05 01:47 | 21.87998 | 120.01350 | 37966 ft | 499 kts | 192° |
| 2026-05-05 01:48 | 21.81139 | 120.00290 | 37977 ft | 499 kts | 192° |
| 2026-05-05 01:48 | 21.74279 | 119.99246 | 37965 ft | 499 kts | 192° |
| 2026-05-05 01:49 | 21.67423 | 119.98204 | 37972 ft | 499 kts | 192° |
| 2026-05-05 01:49 | 21.60559 | 119.97161 | 37974 ft | 499 kts | 192° |
| 2026-05-05 01:50 | 21.53701 | 119.96119 | 37964 ft | 499 kts | 192° |
| 2026-05-05 01:50 | 21.46843 | 119.95079 | 37977 ft | 499 kts | 192° |
| 2026-05-05 01:51 | 21.39982 | 119.94039 | 37968 ft | 499 kts | 192° |
| 2026-05-05 01:51 | 21.33121 | 119.93000 | 37968 ft | 499 kts | 192° |
| 2026-05-05 01:52 | 21.26261 | 119.91962 | 37977 ft | 499 kts | 192° |
| 2026-05-05 01:52 | 21.19401 | 119.90925 | 37964 ft | 499 kts | 192° |
| 2026-05-05 01:53 | 21.12539 | 119.89889 | 37973 ft | 499 kts | 192° |
| 2026-05-05 01:53 | 21.05681 | 119.88851 | 37973 ft | 499 kts | 193° |
| 2026-05-05 01:54 | 20.99273 | 119.86453 | 37930 ft | 484 kts | 213° |
| 2026-05-05 01:54 | 20.96568 | 119.84357 | 37950 ft | 479 kts | 224° |
| 2026-05-05 01:54 | 20.94207 | 119.81877 | 38011 ft | 477 kts | 230° |
| 2026-05-05 01:55 | 20.89715 | 119.76681 | 37979 ft | 476 kts | 230° |
| 2026-05-05 01:55 | 20.85154 | 119.71565 | 37965 ft | 476 kts | 229° |
| 2026-05-05 01:56 | 20.80516 | 119.66525 | 37973 ft | 477 kts | 229° |
| 2026-05-05 01:56 | 20.75845 | 119.61505 | 37973 ft | 477 kts | 229° |
| 2026-05-05 01:57 | 20.71171 | 119.56497 | 37964 ft | 477 kts | 229° |
| 2026-05-05 01:57 | 20.66497 | 119.51492 | 37977 ft | 477 kts | 229° |
| 2026-05-05 01:58 | 20.61817 | 119.46486 | 37968 ft | 477 kts | 229° |
| 2026-05-05 01:58 | 20.57141 | 119.41488 | 37968 ft | 477 kts | 229° |
| 2026-05-05 01:59 | 20.52459 | 119.36489 | 37977 ft | 477 kts | 229° |
| 2026-05-05 01:59 | 20.47778 | 119.31495 | 37964 ft | 477 kts | 229° |
| 2026-05-05 02:00 | 20.43074 | 119.26481 | 37970 ft | 481 kts | 228° |
| 2026-05-05 02:00 | 20.38350 | 119.21454 | 37958 ft | 480 kts | 228° |
| 2026-05-05 02:01 | 20.33634 | 119.16438 | 37958 ft | 482 kts | 228° |
| 2026-05-05 02:01 | 20.28889 | 119.11393 | 37959 ft | 485 kts | 228° |
| 2026-05-05 02:02 | 20.24117 | 119.06325 | 37947 ft | 485 kts | 228° |
| 2026-05-05 02:02 | 20.19369 | 119.01289 | 37944 ft | 484 kts | 228° |
| 2026-05-05 02:03 | 20.14582 | 118.96213 | 37950 ft | 488 kts | 228° |
| 2026-05-05 02:03 | 20.09768 | 118.91115 | 37977 ft | 491 kts | 227° |
| 2026-05-05 02:04 | 20.04939 | 118.86007 | 37990 ft | 490 kts | 227° |
| 2026-05-05 02:04 | 20.00106 | 118.80899 | 37980 ft | 490 kts | 227° |
| 2026-05-05 02:05 | 19.95281 | 118.75804 | 37982 ft | 490 kts | 227° |
| 2026-05-05 02:05 | 19.90452 | 118.70708 | 37990 ft | 491 kts | 227° |
| 2026-05-05 02:06 | 19.85607 | 118.65599 | 37971 ft | 493 kts | 227° |
| 2026-05-05 02:06 | 19.80725 | 118.60457 | 37960 ft | 496 kts | 227° |
| 2026-05-05 02:07 | 19.75854 | 118.55335 | 37962 ft | 493 kts | 227° |
| 2026-05-05 02:07 | 19.70985 | 118.50214 | 37977 ft | 494 kts | 227° |
| 2026-05-05 02:08 | 19.66107 | 118.45092 | 37965 ft | 497 kts | 227° |
| 2026-05-05 02:08 | 19.61184 | 118.39924 | 37985 ft | 499 kts | 227° |
| 2026-05-05 02:09 | 19.56263 | 118.34764 | 37975 ft | 498 kts | 227° |
| 2026-05-05 02:09 | 19.51352 | 118.29621 | 37978 ft | 497 kts | 227° |
| 2026-05-05 02:10 | 19.46425 | 118.24464 | 37988 ft | 499 kts | 227° |
| 2026-05-05 02:10 | 19.41497 | 118.19312 | 37973 ft | 499 kts | 227° |
| 2026-05-05 02:11 | 19.36569 | 118.14163 | 37982 ft | 499 kts | 227° |
| 2026-05-05 02:11 | 19.31637 | 118.09011 | 37983 ft | 499 kts | 227° |
| 2026-05-05 02:12 | 19.24249 | 118.01286 | 37979 ft | 499 kts | 227° |
| 2026-05-05 02:13 | 19.19321 | 117.96138 | 37984 ft | 499 kts | 227° |
| 2026-05-05 02:13 | 19.14392 | 117.90995 | 37972 ft | 498 kts | 227° |
| 2026-05-05 02:14 | 19.09465 | 117.85858 | 37982 ft | 499 kts | 227° |
| 2026-05-05 02:14 | 19.04301 | 117.80967 | 37927 ft | 504 kts | 217° |
| 2026-05-05 02:14 | 19.01222 | 117.79205 | 37947 ft | 508 kts | 206° |
| 2026-05-05 02:15 | 18.97871 | 117.78006 | 37999 ft | 511 kts | 198° |
| 2026-05-05 02:15 | 18.90936 | 117.76342 | 37997 ft | 512 kts | 194° |
| 2026-05-05 02:16 | 18.83973 | 117.74841 | 37975 ft | 512 kts | 194° |
| 2026-05-05 02:16 | 18.77022 | 117.73282 | 37972 ft | 511 kts | 194° |
| 2026-05-05 02:17 | 18.70080 | 117.71687 | 37981 ft | 512 kts | 194° |
| 2026-05-05 02:17 | 18.63139 | 117.70085 | 37969 ft | 512 kts | 194° |
| 2026-05-05 02:18 | 18.56208 | 117.68486 | 37972 ft | 511 kts | 194° |
| 2026-05-05 02:18 | 18.49269 | 117.66888 | 37978 ft | 511 kts | 194° |
| 2026-05-05 02:19 | 18.42330 | 117.65290 | 37964 ft | 511 kts | 194° |
| 2026-05-05 02:19 | 18.35401 | 117.63694 | 37974 ft | 511 kts | 194° |
| 2026-05-05 02:20 | 18.28463 | 117.62099 | 37975 ft | 511 kts | 194° |
| 2026-05-05 02:20 | 18.21531 | 117.60508 | 37962 ft | 511 kts | 194° |
| 2026-05-05 02:21 | 18.14598 | 117.58918 | 37975 ft | 511 kts | 194° |
| 2026-05-05 02:21 | 18.07666 | 117.57329 | 37970 ft | 511 kts | 194° |
| 2026-05-05 02:22 | 18.00739 | 117.55743 | 37961 ft | 510 kts | 194° |
| 2026-05-05 02:22 | 17.93813 | 117.54158 | 37974 ft | 511 kts | 194° |
| 2026-05-05 02:23 | 17.86892 | 117.52576 | 37962 ft | 510 kts | 194° |
| 2026-05-05 02:23 | 17.79972 | 117.50995 | 37962 ft | 510 kts | 194° |
| 2026-05-05 02:24 | 17.73051 | 117.49415 | 37971 ft | 510 kts | 194° |
| 2026-05-05 02:24 | 17.66133 | 117.47837 | 37956 ft | 509 kts | 194° |
| 2026-05-05 02:25 | 17.59221 | 117.46262 | 37966 ft | 510 kts | 194° |
| 2026-05-05 02:25 | 17.52308 | 117.44687 | 37961 ft | 509 kts | 194° |
| 2026-05-05 02:26 | 17.45394 | 117.43115 | 37954 ft | 509 kts | 194° |
| 2026-05-05 02:26 | 17.38481 | 117.41543 | 37968 ft | 510 kts | 194° |
| 2026-05-05 02:27 | 17.31571 | 117.39973 | 37955 ft | 510 kts | 194° |
| 2026-05-05 02:27 | 17.24627 | 117.38395 | 37962 ft | 512 kts | 194° |
| 2026-05-05 02:28 | 17.17683 | 117.36821 | 37961 ft | 511 kts | 194° |
| 2026-05-05 02:28 | 17.10755 | 117.35251 | 37952 ft | 511 kts | 194° |
| 2026-05-05 02:29 | 17.03815 | 117.33679 | 37965 ft | 511 kts | 194° |
| 2026-05-05 02:29 | 16.96888 | 117.32112 | 37952 ft | 510 kts | 194° |
| 2026-05-05 02:30 | 16.89960 | 117.30545 | 37957 ft | 511 kts | 194° |
| 2026-05-05 02:30 | 16.83006 | 117.28966 | 37942 ft | 514 kts | 193° |
| 2026-05-05 02:31 | 16.76039 | 117.27396 | 37919 ft | 513 kts | 193° |
| 2026-05-05 02:31 | 16.69075 | 117.25828 | 37909 ft | 513 kts | 193° |
| 2026-05-05 02:32 | 16.62113 | 117.24259 | 37922 ft | 513 kts | 193° |
| 2026-05-05 02:32 | 16.55148 | 117.22690 | 37914 ft | 513 kts | 193° |
| 2026-05-05 02:33 | 16.48176 | 117.21144 | 37912 ft | 513 kts | 191° |
| 2026-05-05 02:33 | 16.41127 | 117.20015 | 37923 ft | 514 kts | 188° |
| 2026-05-05 02:34 | 16.34054 | 117.19087 | 37909 ft | 514 kts | 187° |
| 2026-05-05 02:34 | 16.26973 | 117.18188 | 37921 ft | 514 kts | 187° |
| 2026-05-05 02:35 | 16.19893 | 117.17283 | 37917 ft | 514 kts | 187° |
| 2026-05-05 02:35 | 16.12808 | 117.16372 | 37912 ft | 514 kts | 187° |
| 2026-05-05 02:36 | 16.05732 | 117.15461 | 37924 ft | 514 kts | 187° |
| 2026-05-05 02:36 | 15.98651 | 117.14550 | 37912 ft | 514 kts | 187° |
| 2026-05-05 02:37 | 15.91573 | 117.13640 | 37918 ft | 514 kts | 187° |
| 2026-05-05 02:37 | 15.84491 | 117.12730 | 37922 ft | 514 kts | 187° |
| 2026-05-05 02:38 | 15.77414 | 117.11822 | 37911 ft | 514 kts | 187° |
| 2026-05-05 02:38 | 15.70333 | 117.10914 | 37924 ft | 514 kts | 187° |
| 2026-05-05 02:39 | 15.63254 | 117.10006 | 37916 ft | 514 kts | 187° |
| 2026-05-05 02:39 | 15.56183 | 117.09098 | 37929 ft | 513 kts | 187° |
| 2026-05-05 02:40 | 15.49102 | 117.08189 | 37939 ft | 513 kts | 187° |
| 2026-05-05 02:40 | 15.42024 | 117.07283 | 37928 ft | 513 kts | 187° |
| 2026-05-05 02:41 | 15.34954 | 117.06380 | 37940 ft | 513 kts | 187° |
| 2026-05-05 02:41 | 15.27875 | 117.05475 | 37935 ft | 513 kts | 187° |
| 2026-05-05 02:42 | 15.20806 | 117.04573 | 37930 ft | 513 kts | 187° |
| 2026-05-05 02:42 | 15.13735 | 117.03672 | 37942 ft | 513 kts | 187° |
| 2026-05-05 02:43 | 15.06674 | 117.02772 | 37930 ft | 512 kts | 187° |
| 2026-05-05 02:43 | 14.99621 | 117.01874 | 37937 ft | 512 kts | 187° |
| 2026-05-05 02:44 | 14.92564 | 117.00976 | 37939 ft | 512 kts | 187° |
| 2026-05-05 02:44 | 14.85501 | 117.00077 | 37929 ft | 512 kts | 187° |
| 2026-05-05 02:45 | 14.78449 | 116.99181 | 37941 ft | 512 kts | 187° |
| 2026-05-05 02:45 | 14.71389 | 116.98284 | 37933 ft | 512 kts | 187° |
| 2026-05-05 02:46 | 14.64332 | 116.97388 | 37933 ft | 512 kts | 187° |
| 2026-05-05 02:46 | 14.57276 | 116.96492 | 37942 ft | 512 kts | 187° |
| 2026-05-05 02:47 | 14.50223 | 116.95598 | 37929 ft | 512 kts | 187° |
| 2026-05-05 02:47 | 14.43172 | 116.94704 | 37938 ft | 512 kts | 187° |
| 2026-05-05 02:48 | 14.36111 | 116.93810 | 37937 ft | 512 kts | 187° |
| 2026-05-05 02:48 | 14.29057 | 116.92917 | 37929 ft | 512 kts | 187° |
| 2026-05-05 02:49 | 14.22002 | 116.92025 | 37942 ft | 512 kts | 187° |
| 2026-05-05 02:49 | 14.14943 | 116.91133 | 37932 ft | 512 kts | 187° |
| 2026-05-05 02:50 | 14.07893 | 116.90242 | 37934 ft | 512 kts | 187° |
| 2026-05-05 02:50 | 14.00827 | 116.89351 | 37942 ft | 513 kts | 187° |
| 2026-05-05 02:51 | 13.93756 | 116.88458 | 37929 ft | 513 kts | 187° |
| 2026-05-05 02:51 | 13.86687 | 116.87567 | 37938 ft | 513 kts | 187° |
| 2026-05-05 02:52 | 13.79613 | 116.86675 | 37937 ft | 513 kts | 187° |
| 2026-05-05 02:52 | 13.72544 | 116.85785 | 37929 ft | 513 kts | 187° |
| 2026-05-05 02:53 | 13.65473 | 116.84895 | 37942 ft | 513 kts | 187° |
| 2026-05-05 02:53 | 13.58402 | 116.84006 | 37932 ft | 513 kts | 187° |
| 2026-05-05 02:54 | 13.51333 | 116.83118 | 37934 ft | 513 kts | 187° |
| 2026-05-05 02:54 | 13.44265 | 116.82230 | 37941 ft | 513 kts | 187° |
| 2026-05-05 02:55 | 13.37197 | 116.81342 | 37929 ft | 513 kts | 187° |
| 2026-05-05 02:55 | 13.30131 | 116.80456 | 37940 ft | 513 kts | 187° |
| 2026-05-05 02:56 | 13.23059 | 116.79569 | 37936 ft | 513 kts | 187° |
| 2026-05-05 02:56 | 13.15994 | 116.78684 | 37930 ft | 513 kts | 187° |
| 2026-05-05 02:57 | 13.08925 | 116.77798 | 37942 ft | 513 kts | 187° |
| 2026-05-05 02:57 | 13.01856 | 116.76914 | 37931 ft | 513 kts | 187° |
| 2026-05-05 02:58 | 12.94794 | 116.76030 | 37936 ft | 512 kts | 187° |
| 2026-05-05 02:58 | 12.87726 | 116.75146 | 37940 ft | 513 kts | 187° |
| 2026-05-05 02:59 | 12.80659 | 116.74263 | 37928 ft | 512 kts | 187° |
| 2026-05-05 02:59 | 12.73593 | 116.73381 | 37940 ft | 512 kts | 187° |
| 2026-05-05 03:00 | 12.66549 | 116.72492 | 37946 ft | 506 kts | 185° |
| 2026-05-05 03:00 | 12.59673 | 116.71636 | 37922 ft | 495 kts | 185° |
| 2026-05-05 03:01 | 12.52811 | 116.70787 | 37945 ft | 499 kts | 185° |
| 2026-05-05 03:01 | 12.45925 | 116.69932 | 37932 ft | 499 kts | 185° |
| 2026-05-05 03:02 | 12.39053 | 116.69076 | 37934 ft | 499 kts | 185° |
| 2026-05-05 03:02 | 12.32176 | 116.68220 | 37941 ft | 499 kts | 185° |
| 2026-05-05 03:03 | 12.25300 | 116.67365 | 37929 ft | 499 kts | 185° |
| 2026-05-05 03:03 | 12.18424 | 116.66510 | 37940 ft | 499 kts | 185° |
| 2026-05-05 03:04 | 12.11550 | 116.65655 | 37936 ft | 499 kts | 185° |
| 2026-05-05 03:04 | 12.04678 | 116.64802 | 37930 ft | 498 kts | 185° |
| 2026-05-05 03:05 | 11.97809 | 116.63949 | 37942 ft | 499 kts | 185° |
| 2026-05-05 03:05 | 11.90937 | 116.63096 | 37931 ft | 498 kts | 185° |
| 2026-05-05 03:06 | 11.84069 | 116.62244 | 37936 ft | 498 kts | 185° |
| 2026-05-05 03:06 | 11.77200 | 116.61393 | 37940 ft | 498 kts | 185° |
| 2026-05-05 03:07 | 11.70336 | 116.60543 | 37928 ft | 498 kts | 185° |
| 2026-05-05 03:07 | 11.63471 | 116.59692 | 37941 ft | 498 kts | 185° |
| 2026-05-05 03:08 | 11.56606 | 116.58843 | 37934 ft | 498 kts | 185° |
| 2026-05-05 03:08 | 11.49749 | 116.57994 | 37932 ft | 497 kts | 185° |
| 2026-05-05 03:09 | 11.42891 | 116.57146 | 37942 ft | 498 kts | 185° |
| 2026-05-05 03:09 | 11.36018 | 116.56297 | 37930 ft | 499 kts | 185° |
| 2026-05-05 03:10 | 11.29144 | 116.55448 | 37937 ft | 498 kts | 185° |
| 2026-05-05 03:10 | 11.22265 | 116.54599 | 37937 ft | 501 kts | 186° |
| 2026-05-05 03:11 | 11.15359 | 116.53745 | 37928 ft | 501 kts | 186° |
| 2026-05-05 03:11 | 11.08458 | 116.52892 | 37941 ft | 501 kts | 186° |
| 2026-05-05 03:12 | 11.01555 | 116.52041 | 37934 ft | 501 kts | 186° |
| 2026-05-05 03:12 | 10.94654 | 116.51191 | 37931 ft | 500 kts | 186° |
| 2026-05-05 03:13 | 10.87754 | 116.50341 | 37942 ft | 501 kts | 186° |
| 2026-05-05 03:13 | 10.80850 | 116.49491 | 37930 ft | 501 kts | 186° |
| 2026-05-05 03:14 | 10.73949 | 116.48641 | 37937 ft | 500 kts | 186° |
| 2026-05-05 03:14 | 10.67049 | 116.47793 | 37939 ft | 501 kts | 186° |
| 2026-05-05 03:15 | 10.60147 | 116.46944 | 37929 ft | 500 kts | 186° |
| 2026-05-05 03:15 | 10.53249 | 116.46096 | 37941 ft | 501 kts | 186° |
| 2026-05-05 03:16 | 10.46345 | 116.45248 | 37933 ft | 501 kts | 186° |
| 2026-05-05 03:16 | 10.39442 | 116.44401 | 37932 ft | 500 kts | 186° |
| 2026-05-05 03:17 | 10.32540 | 116.43554 | 37942 ft | 501 kts | 186° |
| 2026-05-05 03:17 | 10.25636 | 116.42707 | 37929 ft | 501 kts | 186° |
| 2026-05-05 03:18 | 10.18734 | 116.41861 | 37938 ft | 501 kts | 186° |
| 2026-05-05 03:18 | 10.11834 | 116.41015 | 37937 ft | 501 kts | 186° |
| 2026-05-05 03:19 | 10.01481 | 116.39747 | 37936 ft | 500 kts | 186° |
| 2026-05-05 03:19 | 9.94580 | 116.38902 | 37940 ft | 501 kts | 186° |
| 2026-05-05 03:20 | 9.87677 | 116.38057 | 37928 ft | 500 kts | 186° |
| 2026-05-05 03:20 | 9.80783 | 116.37214 | 37941 ft | 500 kts | 186° |
| 2026-05-05 03:21 | 9.73877 | 116.36369 | 37934 ft | 501 kts | 186° |
| 2026-05-05 03:21 | 9.66980 | 116.35526 | 37932 ft | 500 kts | 186° |
| 2026-05-05 03:22 | 9.60082 | 116.34683 | 37942 ft | 501 kts | 186° |
| 2026-05-05 03:22 | 9.53179 | 116.33840 | 37929 ft | 500 kts | 186° |
| 2026-05-05 03:23 | 9.46280 | 116.32998 | 37938 ft | 500 kts | 186° |
| 2026-05-05 03:23 | 9.39380 | 116.32156 | 37938 ft | 501 kts | 186° |
| 2026-05-05 03:24 | 9.32459 | 116.31312 | 37917 ft | 502 kts | 186° |
| 2026-05-05 03:24 | 9.25544 | 116.30469 | 37905 ft | 501 kts | 186° |
| 2026-05-05 03:25 | 9.18636 | 116.29627 | 37916 ft | 502 kts | 186° |
| 2026-05-05 03:25 | 9.11718 | 116.28784 | 37910 ft | 502 kts | 186° |
| 2026-05-05 03:26 | 9.04801 | 116.27941 | 37904 ft | 501 kts | 186° |
| 2026-05-05 03:26 | 8.97885 | 116.27099 | 37916 ft | 502 kts | 186° |
| 2026-05-05 03:27 | 8.90977 | 116.26258 | 37903 ft | 501 kts | 186° |
| 2026-05-05 03:27 | 8.84060 | 116.25417 | 37906 ft | 501 kts | 186° |
| 2026-05-05 03:28 | 8.77148 | 116.24576 | 37912 ft | 502 kts | 186° |
| 2026-05-05 03:28 | 8.70227 | 116.23735 | 37894 ft | 504 kts | 186° |
| 2026-05-05 03:29 | 8.63360 | 116.22363 | 37900 ft | 505 kts | 194° |
| 2026-05-05 03:29 | 8.56652 | 116.20258 | 37878 ft | 506 kts | 198° |
| 2026-05-05 03:30 | 8.50023 | 116.17913 | 37881 ft | 506 kts | 199° |
| 2026-05-05 03:30 | 8.43413 | 116.15520 | 37888 ft | 506 kts | 199° |
| 2026-05-05 03:31 | 8.36797 | 116.13128 | 37875 ft | 506 kts | 199° |
| 2026-05-05 03:31 | 8.30166 | 116.10740 | 37885 ft | 508 kts | 199° |
| 2026-05-05 03:32 | 8.23530 | 116.08351 | 37877 ft | 508 kts | 199° |
| 2026-05-05 03:32 | 8.16888 | 116.05960 | 37870 ft | 507 kts | 199° |
| 2026-05-05 03:33 | 8.10254 | 116.03572 | 37883 ft | 508 kts | 199° |
| 2026-05-05 03:33 | 8.03619 | 116.01183 | 37872 ft | 508 kts | 199° |
| 2026-05-05 03:34 | 7.96966 | 115.98783 | 37881 ft | 510 kts | 199° |
| 2026-05-05 03:34 | 7.90301 | 115.96377 | 37885 ft | 509 kts | 199° |
| 2026-05-05 03:35 | 7.83641 | 115.93973 | 37873 ft | 509 kts | 199° |
| 2026-05-05 03:35 | 7.76984 | 115.91572 | 37886 ft | 509 kts | 199° |
| 2026-05-05 03:36 | 7.70325 | 115.89171 | 37880 ft | 509 kts | 199° |
| 2026-05-05 03:36 | 7.63669 | 115.86772 | 37876 ft | 509 kts | 199° |
| 2026-05-05 03:37 | 7.57005 | 115.84371 | 37888 ft | 509 kts | 199° |
| 2026-05-05 03:37 | 7.50343 | 115.81972 | 37875 ft | 509 kts | 199° |
| 2026-05-05 03:38 | 7.43688 | 115.79575 | 37881 ft | 509 kts | 199° |
| 2026-05-05 03:38 | 7.37025 | 115.77177 | 37886 ft | 509 kts | 199° |
| 2026-05-05 03:39 | 7.30366 | 115.74781 | 37874 ft | 509 kts | 199° |
| 2026-05-05 03:39 | 7.23709 | 115.72387 | 37886 ft | 509 kts | 199° |
| 2026-05-05 03:40 | 7.17052 | 115.69993 | 37881 ft | 509 kts | 199° |
| 2026-05-05 03:40 | 7.10393 | 115.67599 | 37877 ft | 509 kts | 199° |
| 2026-05-05 03:41 | 7.03734 | 115.65206 | 37889 ft | 509 kts | 199° |
| 2026-05-05 03:41 | 6.97077 | 115.62814 | 37876 ft | 509 kts | 199° |
| 2026-05-05 03:42 | 6.90419 | 115.60423 | 37882 ft | 509 kts | 199° |
| 2026-05-05 03:42 | 6.83766 | 115.58034 | 37887 ft | 509 kts | 199° |
| 2026-05-05 03:43 | 6.77105 | 115.55643 | 37875 ft | 509 kts | 199° |
| 2026-05-05 03:43 | 6.70445 | 115.53253 | 37887 ft | 509 kts | 199° |
| 2026-05-05 03:44 | 6.63781 | 115.50862 | 37884 ft | 509 kts | 199° |
| 2026-05-05 03:44 | 6.57123 | 115.48474 | 37878 ft | 509 kts | 199° |
| 2026-05-05 03:45 | 6.50463 | 115.46086 | 37891 ft | 509 kts | 199° |
| 2026-05-05 03:45 | 6.43804 | 115.43699 | 37880 ft | 509 kts | 199° |
| 2026-05-05 03:46 | 6.37133 | 115.41310 | 37885 ft | 511 kts | 199° |
| 2026-05-05 03:46 | 6.30446 | 115.38913 | 37893 ft | 511 kts | 199° |
| 2026-05-05 03:47 | 6.23770 | 115.36522 | 37881 ft | 510 kts | 199° |
| 2026-05-05 03:47 | 6.17075 | 115.34126 | 37895 ft | 512 kts | 199° |
| 2026-05-05 03:48 | 6.10381 | 115.31729 | 37890 ft | 512 kts | 199° |
| 2026-05-05 03:48 | 6.03681 | 115.29331 | 37889 ft | 512 kts | 199° |
| 2026-05-05 03:49 | 5.96976 | 115.26933 | 37902 ft | 513 kts | 199° |
| 2026-05-05 03:49 | 5.90264 | 115.24533 | 37891 ft | 513 kts | 199° |
| 2026-05-05 03:50 | 5.83550 | 115.22132 | 37899 ft | 514 kts | 199° |
| 2026-05-05 03:50 | 5.76834 | 115.19730 | 37904 ft | 513 kts | 199° |
| 2026-05-05 03:51 | 5.70114 | 115.17329 | 37896 ft | 514 kts | 199° |
| 2026-05-05 03:51 | 5.63376 | 115.14932 | 37910 ft | 515 kts | 199° |
| 2026-05-05 03:52 | 5.56631 | 115.12540 | 37904 ft | 515 kts | 198° |
| 2026-05-05 03:52 | 5.49893 | 115.10151 | 37904 ft | 515 kts | 198° |
| 2026-05-05 03:53 | 5.43157 | 115.07763 | 37912 ft | 515 kts | 198° |
| 2026-05-05 03:53 | 5.36409 | 115.05372 | 37899 ft | 515 kts | 198° |
| 2026-05-05 03:54 | 5.29663 | 115.02996 | 37910 ft | 515 kts | 198° |
| 2026-05-05 03:54 | 5.22898 | 115.00675 | 37906 ft | 515 kts | 198° |
| 2026-05-05 03:55 | 5.16129 | 114.98362 | 37901 ft | 515 kts | 198° |
| 2026-05-05 03:55 | 5.09360 | 114.96048 | 37913 ft | 515 kts | 198° |
| 2026-05-05 03:56 | 5.02590 | 114.93732 | 37900 ft | 515 kts | 198° |
| 2026-05-05 03:56 | 4.95809 | 114.91410 | 37907 ft | 515 kts | 198° |
| 2026-05-05 03:57 | 4.88949 | 114.89499 | 37887 ft | 512 kts | 188° |
| 2026-05-05 03:57 | 4.81872 | 114.88727 | 37914 ft | 512 kts | 183° |
| 2026-05-05 03:58 | 4.74782 | 114.88344 | 37897 ft | 511 kts | 180° |
| 2026-05-05 03:58 | 4.67705 | 114.88139 | 37910 ft | 510 kts | 180° |
| 2026-05-05 03:59 | 4.60628 | 114.87970 | 37912 ft | 509 kts | 180° |
| 2026-05-05 03:59 | 4.53557 | 114.87801 | 37909 ft | 508 kts | 180° |
| 2026-05-05 04:00 | 4.46523 | 114.87324 | 37869 ft | 511 kts | 189° |
| 2026-05-05 04:00 | 4.43137 | 114.86291 | 37887 ft | 511 kts | 200° |
| 2026-05-05 04:00 | 4.39983 | 114.84654 | 37912 ft | 513 kts | 210° |
| 2026-05-05 04:01 | 4.34228 | 114.80428 | 37952 ft | 514 kts | 217° |
| 2026-05-05 04:01 | 4.28614 | 114.76031 | 37927 ft | 513 kts | 217° |
| 2026-05-05 04:02 | 4.22938 | 114.71714 | 37920 ft | 513 kts | 216° |
| 2026-05-05 04:02 | 4.17231 | 114.67449 | 37936 ft | 513 kts | 216° |
| 2026-05-05 04:03 | 4.11510 | 114.63187 | 37937 ft | 513 kts | 216° |
| 2026-05-05 04:03 | 4.05796 | 114.58932 | 37919 ft | 514 kts | 216° |
| 2026-05-05 04:04 | 4.00078 | 114.54673 | 37915 ft | 512 kts | 216° |
| 2026-05-05 04:04 | 3.94366 | 114.50415 | 37931 ft | 513 kts | 216° |
| 2026-05-05 04:05 | 3.88738 | 114.46050 | 37917 ft | 513 kts | 217° |
| 2026-05-05 04:05 | 3.83153 | 114.41625 | 37923 ft | 513 kts | 218° |
| 2026-05-05 04:06 | 3.77572 | 114.37203 | 37933 ft | 513 kts | 217° |
| 2026-05-05 04:06 | 3.71962 | 114.32765 | 37915 ft | 514 kts | 217° |
| 2026-05-05 04:07 | 3.66363 | 114.28341 | 37909 ft | 513 kts | 217° |
| 2026-05-05 04:07 | 3.60769 | 114.23921 | 37926 ft | 513 kts | 217° |
| 2026-05-05 04:08 | 3.55179 | 114.19505 | 37924 ft | 513 kts | 217° |
| 2026-05-05 04:08 | 3.49585 | 114.15087 | 37915 ft | 513 kts | 217° |
| 2026-05-05 04:09 | 3.43987 | 114.10667 | 37926 ft | 515 kts | 217° |
| 2026-05-05 04:09 | 3.38382 | 114.06241 | 37910 ft | 515 kts | 217° |
| 2026-05-05 04:10 | 3.32778 | 114.01816 | 37905 ft | 515 kts | 217° |
| 2026-05-05 04:10 | 3.27157 | 113.97379 | 37917 ft | 515 kts | 217° |
| 2026-05-05 04:11 | 3.21541 | 113.92948 | 37905 ft | 516 kts | 217° |
| 2026-05-05 04:11 | 3.15913 | 113.88507 | 37906 ft | 516 kts | 217° |
| 2026-05-05 04:12 | 3.10304 | 113.84081 | 37913 ft | 515 kts | 217° |
| 2026-05-05 04:12 | 3.04677 | 113.79642 | 37900 ft | 516 kts | 217° |
| 2026-05-05 04:13 | 2.99050 | 113.75203 | 37908 ft | 516 kts | 217° |
| 2026-05-05 04:13 | 2.93430 | 113.70770 | 37909 ft | 515 kts | 217° |
| 2026-05-05 04:14 | 2.87806 | 113.66336 | 37900 ft | 516 kts | 217° |
| 2026-05-05 04:14 | 2.82177 | 113.61898 | 37912 ft | 516 kts | 217° |
| 2026-05-05 04:15 | 2.76555 | 113.57466 | 37902 ft | 516 kts | 217° |
| 2026-05-05 04:15 | 2.70930 | 113.53040 | 37902 ft | 513 kts | 217° |
| 2026-05-05 04:16 | 2.65343 | 113.48649 | 37907 ft | 512 kts | 217° |
| 2026-05-05 04:16 | 2.59743 | 113.44253 | 37898 ft | 513 kts | 217° |
| 2026-05-05 04:17 | 2.54142 | 113.39852 | 37899 ft | 512 kts | 217° |
| 2026-05-05 04:17 | 2.48550 | 113.35459 | 37908 ft | 513 kts | 217° |
| 2026-05-05 04:18 | 2.42959 | 113.31068 | 37894 ft | 513 kts | 217° |
| 2026-05-05 04:18 | 2.37352 | 113.26664 | 37904 ft | 513 kts | 217° |
| 2026-05-05 04:19 | 2.31750 | 113.22264 | 37905 ft | 513 kts | 217° |
| 2026-05-05 04:19 | 2.26159 | 113.17873 | 37895 ft | 512 kts | 217° |
| 2026-05-05 04:20 | 2.20557 | 113.13475 | 37907 ft | 513 kts | 217° |
| 2026-05-05 04:20 | 2.14946 | 113.09070 | 37896 ft | 514 kts | 217° |
| 2026-05-05 04:21 | 2.09341 | 113.04671 | 37899 ft | 513 kts | 217° |
| 2026-05-05 04:21 | 2.03734 | 113.00270 | 37918 ft | 514 kts | 217° |
| 2026-05-05 04:22 | 1.98123 | 112.95865 | 37914 ft | 514 kts | 217° |
| 2026-05-05 04:22 | 1.92513 | 112.91462 | 37893 ft | 514 kts | 217° |
| 2026-05-05 04:23 | 1.86900 | 112.87058 | 37908 ft | 513 kts | 217° |
| 2026-05-05 04:23 | 1.81305 | 112.82666 | 37921 ft | 511 kts | 217° |
| 2026-05-05 04:24 | 1.75716 | 112.78282 | 37917 ft | 512 kts | 217° |
| 2026-05-05 04:25 | 1.67329 | 112.71702 | 37933 ft | 512 kts | 217° |
| 2026-05-05 04:25 | 1.61745 | 112.67321 | 37912 ft | 511 kts | 217° |
| 2026-05-05 04:26 | 1.56162 | 112.62947 | 37909 ft | 511 kts | 217° |
| 2026-05-05 04:26 | 1.50570 | 112.58599 | 37929 ft | 510 kts | 216° |
| 2026-05-05 04:27 | 1.44973 | 112.54255 | 37932 ft | 510 kts | 216° |
| 2026-05-05 04:27 | 1.39374 | 112.49911 | 37919 ft | 510 kts | 216° |
| 2026-05-05 04:28 | 1.33775 | 112.45562 | 37914 ft | 511 kts | 216° |
| 2026-05-05 04:28 | 1.28173 | 112.41213 | 37897 ft | 511 kts | 216° |
| 2026-05-05 04:29 | 1.22566 | 112.36861 | 37893 ft | 511 kts | 216° |
| 2026-05-05 04:29 | 1.16964 | 112.32511 | 37912 ft | 511 kts | 216° |
| 2026-05-05 04:30 | 1.11353 | 112.28156 | 37910 ft | 512 kts | 216° |
| 2026-05-05 04:30 | 1.05742 | 112.23801 | 37891 ft | 511 kts | 216° |
| 2026-05-05 04:31 | 1.00131 | 112.19445 | 37900 ft | 512 kts | 216° |
| 2026-05-05 04:31 | 0.94517 | 112.15088 | 37913 ft | 512 kts | 216° |
| 2026-05-05 04:32 | 0.88900 | 112.10729 | 37911 ft | 512 kts | 216° |
| 2026-05-05 04:32 | 0.83281 | 112.06368 | 37921 ft | 513 kts | 216° |
| 2026-05-05 04:33 | 0.77657 | 112.02003 | 37922 ft | 512 kts | 216° |
| 2026-05-05 04:33 | 0.72043 | 111.97646 | 37914 ft | 512 kts | 216° |
| 2026-05-05 04:34 | 0.66420 | 111.93284 | 37930 ft | 514 kts | 216° |
| 2026-05-05 04:34 | 0.60786 | 111.88912 | 37924 ft | 514 kts | 216° |
| 2026-05-05 04:35 | 0.55137 | 111.84528 | 37928 ft | 515 kts | 216° |
| 2026-05-05 04:35 | 0.49493 | 111.80148 | 37936 ft | 515 kts | 216° |
| 2026-05-05 04:36 | 0.43848 | 111.75768 | 37925 ft | 515 kts | 216° |
| 2026-05-05 04:36 | 0.38190 | 111.71378 | 37934 ft | 516 kts | 216° |
| 2026-05-05 04:37 | 0.32534 | 111.66991 | 37934 ft | 517 kts | 216° |
| 2026-05-05 04:37 | 0.26863 | 111.62590 | 37929 ft | 517 kts | 216° |
| 2026-05-05 04:38 | 0.21196 | 111.58193 | 37941 ft | 517 kts | 216° |
| 2026-05-05 04:38 | 0.15533 | 111.53799 | 37929 ft | 517 kts | 216° |
| 2026-05-05 04:39 | 0.09863 | 111.49399 | 37936 ft | 517 kts | 216° |
| 2026-05-05 04:39 | 0.04197 | 111.45003 | 37938 ft | 517 kts | 216° |
| 2026-05-05 04:40 | -0.01465 | 111.40611 | 37927 ft | 516 kts | 216° |
| 2026-05-05 04:40 | -0.07116 | 111.36227 | 37938 ft | 516 kts | 216° |
| 2026-05-05 04:41 | -0.12773 | 111.31837 | 37931 ft | 516 kts | 216° |
| 2026-05-05 04:41 | -0.18425 | 111.27452 | 37922 ft | 515 kts | 216° |
| 2026-05-05 04:42 | -0.24081 | 111.23064 | 37935 ft | 516 kts | 216° |
| 2026-05-05 04:42 | -0.29734 | 111.18678 | 37927 ft | 515 kts | 216° |
| 2026-05-05 04:43 | -0.35380 | 111.14297 | 37924 ft | 515 kts | 216° |
| 2026-05-05 04:43 | -0.41029 | 111.09906 | 37936 ft | 516 kts | 217° |
| 2026-05-05 04:44 | -0.46656 | 111.05516 | 37922 ft | 511 kts | 216° |
| 2026-05-05 04:44 | -0.52245 | 111.01158 | 37917 ft | 511 kts | 216° |
| 2026-05-05 04:45 | -0.57844 | 110.96794 | 37933 ft | 512 kts | 216° |
| 2026-05-05 04:45 | -0.63444 | 110.92428 | 37918 ft | 511 kts | 216° |
| 2026-05-05 04:46 | -0.69042 | 110.88062 | 37914 ft | 511 kts | 216° |
| 2026-05-05 04:46 | -0.74634 | 110.83703 | 37925 ft | 511 kts | 216° |
| 2026-05-05 04:47 | -0.80231 | 110.79338 | 37909 ft | 511 kts | 216° |
| 2026-05-05 04:47 | -0.85808 | 110.74989 | 37909 ft | 510 kts | 216° |
| 2026-05-05 04:48 | -0.91404 | 110.70627 | 37919 ft | 511 kts | 216° |
| 2026-05-05 04:48 | -0.96982 | 110.66276 | 37906 ft | 511 kts | 216° |